createdAt,value
2023-06-19T00:01:30.684Z,73.42
2023-06-19T00:03:57.168Z,73.30
2023-06-19T00:06:23.711Z,73.85
2023-06-19T00:08:50.161Z,74.31
2023-06-19T00:11:16.794Z,74.28
2023-06-19T00:13:43.351Z,74.56
2023-06-19T00:16:10.164Z,74.90
2023-06-19T00:18:40.956Z,74.78
2023-06-19T00:21:08.757Z,74.51
2023-06-19T00:23:35.417Z,74.00
2023-06-19T00:26:04.831Z,74.60
2023-06-19T00:28:31.863Z,74.53
2023-06-19T00:30:58.605Z,74.52
2023-06-19T00:33:25.258Z,74.83
2023-06-19T00:35:52.246Z,74.67
2023-06-19T00:38:18.891Z,75.16
2023-06-19T00:40:45.370Z,74.99
2023-06-19T00:43:12.037Z,75.18
2023-06-19T00:45:38.506Z,74.81
2023-06-19T00:48:05.754Z,75.32
2023-06-19T00:50:32.528Z,75.05
2023-06-19T00:53:00.562Z,75.84
2023-06-19T00:55:31.068Z,75.05
2023-06-19T00:57:57.814Z,74.66
2023-06-19T01:00:24.562Z,74.83
2023-06-19T01:02:51.482Z,74.71
2023-06-19T01:05:19.161Z,75.81
2023-06-19T01:08:03.536Z,74.97
2023-06-19T01:10:37.697Z,75.70
2023-06-19T01:13:31.620Z,75.34
2023-06-19T01:15:59.157Z,75.67
2023-06-19T01:18:27.993Z,75.54
2023-06-19T01:20:54.482Z,76.31
2023-06-19T01:23:21.026Z,76.93
2023-06-19T01:25:47.493Z,76.37
2023-06-19T01:28:14.377Z,77.14
2023-06-19T01:30:42.919Z,77.97
2023-06-19T01:33:15.982Z,77.25
2023-06-19T01:35:44.279Z,77.76
2023-06-19T01:38:13.450Z,77.81
2023-06-19T01:40:41.755Z,77.13
2023-06-19T01:43:09.806Z,77.15
2023-06-19T01:45:36.597Z,77.78
2023-06-19T01:48:03.569Z,77.77
2023-06-19T01:50:30.228Z,77.00
2023-06-19T01:52:56.778Z,77.27
2023-06-19T01:55:23.423Z,76.54
2023-06-19T01:57:50.030Z,77.15
2023-06-19T02:00:16.952Z,76.59
2023-06-19T02:02:43.544Z,76.07
2023-06-19T02:05:10.524Z,76.11
2023-06-19T02:07:37.014Z,75.61
2023-06-19T02:10:03.717Z,75.72
2023-06-19T02:12:30.246Z,75.40
2023-06-19T02:14:56.709Z,75.48
2023-06-19T02:17:23.233Z,75.68
2023-06-19T02:19:49.740Z,75.80
2023-06-19T02:22:16.239Z,75.17
2023-06-19T02:24:42.828Z,75.38
2023-06-19T02:27:09.484Z,76.07
2023-06-19T02:29:35.979Z,76.17
2023-06-19T02:32:03.718Z,76.09
2023-06-19T02:34:30.395Z,76.76
2023-06-19T02:36:56.960Z,76.21
2023-06-19T02:39:24.153Z,76.81
2023-06-19T02:41:50.834Z,76.90
2023-06-19T02:44:17.351Z,76.81
2023-06-19T02:46:43.823Z,77.46
2023-06-19T02:49:10.319Z,77.58
2023-06-19T02:51:36.817Z,77.18
2023-06-19T02:54:03.313Z,77.66
2023-06-19T02:56:29.893Z,77.45
2023-06-19T02:58:56.435Z,77.60
2023-06-19T03:01:23.031Z,78.16
2023-06-19T03:03:49.878Z,77.94
2023-06-19T03:06:16.419Z,77.78
2023-06-19T03:08:42.909Z,78.41
2023-06-19T03:11:09.448Z,78.21
2023-06-19T03:13:48.061Z,79.00
2023-06-19T03:16:17.966Z,78.25
2023-06-19T03:18:50.834Z,78.65
2023-06-19T03:21:20.953Z,79.45
2023-06-19T03:23:47.659Z,78.83
2023-06-19T03:26:14.315Z,78.43
2023-06-19T03:28:40.969Z,78.51
2023-06-19T03:31:07.480Z,79.30
2023-06-19T03:33:34.000Z,79.11
2023-06-19T03:36:00.470Z,79.58
2023-06-19T03:38:27.096Z,79.32
2023-06-19T03:40:53.584Z,79.29
2023-06-19T03:43:20.068Z,79.64
2023-06-19T03:45:46.772Z,79.70
2023-06-19T03:48:13.460Z,80.06
2023-06-19T03:50:40.056Z,80.15
2023-06-19T03:53:06.620Z,80.73
2023-06-19T03:55:33.246Z,79.62
2023-06-19T03:57:59.755Z,80.47
2023-06-19T04:00:26.458Z,80.24
2023-06-19T04:02:53.286Z,80.03
2023-06-19T04:05:20.892Z,80.24
2023-06-19T04:07:47.416Z,79.70
2023-06-19T04:10:14.084Z,79.31
2023-06-19T04:12:41.638Z,78.64
2023-06-19T04:15:09.469Z,78.09
2023-06-19T04:17:36.001Z,78.68
2023-06-19T04:20:04.430Z,79.25
2023-06-19T04:22:30.928Z,80.10
2023-06-19T04:24:57.428Z,79.09
2023-06-19T04:27:23.919Z,78.81
2023-06-19T04:29:50.530Z,78.55
2023-06-19T04:32:17.060Z,77.92
2023-06-19T04:34:47.148Z,78.36
2023-06-19T04:37:13.808Z,78.84
2023-06-19T04:39:40.273Z,79.25
2023-06-19T04:42:07.344Z,80.09
2023-06-19T04:44:34.763Z,79.51
2023-06-19T04:47:04.342Z,79.70
2023-06-19T04:49:31.690Z,79.96
2023-06-19T04:51:58.988Z,79.21
2023-06-19T04:54:26.312Z,79.40
2023-06-19T04:56:54.325Z,79.68
2023-06-19T04:59:21.301Z,79.24
2023-06-19T05:01:47.851Z,79.50
2023-06-19T05:04:14.658Z,79.25
2023-06-19T05:06:41.193Z,80.08
2023-06-19T05:09:07.722Z,80.17
2023-06-19T05:11:34.392Z,80.63
2023-06-19T05:14:01.009Z,79.73
2023-06-19T05:16:27.602Z,79.62
2023-06-19T05:18:54.261Z,79.81
2023-06-19T05:21:21.102Z,80.81
2023-06-19T05:23:51.873Z,80.90
2023-06-19T05:26:18.462Z,79.96
2023-06-19T05:28:44.960Z,79.31
2023-06-19T05:31:11.462Z,79.98
2023-06-19T05:33:38.050Z,78.96
2023-06-19T05:36:04.812Z,79.11
2023-06-19T05:38:31.904Z,80.05
2023-06-19T05:40:58.774Z,80.32
2023-06-19T05:43:28.187Z,79.66
2023-06-19T05:45:57.051Z,80.21
2023-06-19T05:48:23.693Z,79.96
2023-06-19T05:50:50.157Z,79.54
2023-06-19T05:53:16.639Z,79.65
2023-06-19T05:55:43.554Z,79.06
2023-06-19T05:58:10.150Z,79.52
2023-06-19T06:00:36.682Z,79.90
2023-06-19T06:03:03.512Z,79.07
2023-06-19T06:05:30.249Z,78.74
2023-06-19T06:07:57.090Z,78.60
2023-06-19T06:10:25.295Z,79.31
2023-06-19T06:12:52.286Z,78.61
2023-06-19T06:15:19.289Z,77.77
2023-06-19T06:17:45.871Z,77.89
2023-06-19T06:20:13.447Z,77.16
2023-06-19T06:22:43.902Z,76.89
2023-06-19T06:25:14.170Z,77.20
2023-06-19T06:27:41.302Z,75.94
2023-06-19T06:30:08.320Z,76.49
2023-06-19T06:32:35.282Z,76.70
2023-06-19T06:35:02.213Z,77.35
2023-06-19T06:37:28.706Z,76.82
2023-06-19T06:39:55.294Z,77.76
2023-06-19T06:42:21.765Z,77.71
2023-06-19T06:44:48.247Z,78.49
2023-06-19T06:47:14.879Z,78.58
2023-06-19T06:49:41.371Z,78.64
2023-06-19T06:52:08.356Z,78.06
2023-06-19T06:54:34.966Z,77.51
2023-06-19T06:57:01.465Z,78.05
2023-06-19T07:01:56.055Z,77.71
2023-06-19T07:04:22.937Z,78.09
2023-06-19T07:06:50.313Z,77.68
2023-06-19T07:09:16.906Z,77.17
2023-06-19T07:11:43.486Z,78.05
2023-06-19T07:14:09.993Z,77.92
2023-06-19T07:16:36.723Z,78.71
2023-06-19T07:19:03.308Z,77.95
2023-06-19T07:21:31.109Z,78.04
2023-06-19T07:23:58.643Z,78.38
2023-06-19T07:26:25.198Z,77.62
2023-06-19T07:28:51.727Z,77.54
2023-06-19T07:31:18.231Z,78.02
2023-06-19T07:33:44.772Z,77.81
2023-06-19T07:36:15.079Z,78.82
2023-06-19T07:38:43.200Z,77.27
2023-06-19T07:41:11.018Z,76.87
2023-06-19T07:43:38.587Z,76.20
2023-06-19T07:46:05.795Z,76.01
2023-06-19T07:48:32.495Z,75.58
2023-06-19T07:50:59.036Z,75.81
2023-06-19T07:53:25.595Z,75.40
2023-06-19T07:55:52.084Z,75.84
2023-06-19T07:58:19.363Z,75.27
2023-06-19T08:00:46.073Z,74.67
2023-06-19T08:03:12.688Z,75.33
2023-06-19T08:05:39.415Z,75.30
2023-06-19T08:08:05.889Z,74.52
2023-06-19T08:10:32.625Z,75.67
2023-06-19T08:12:59.367Z,76.28
2023-06-19T08:15:26.089Z,75.79
2023-06-19T08:17:52.633Z,76.29
2023-06-19T08:20:20.816Z,75.32
2023-06-19T08:22:47.412Z,74.45
2023-06-19T08:25:14.104Z,73.94
2023-06-19T08:27:40.635Z,74.79
2023-06-19T08:30:08.151Z,74.66
2023-06-19T08:32:36.035Z,74.74
2023-06-19T08:35:02.793Z,75.53
2023-06-19T08:37:29.887Z,74.75
2023-06-19T08:39:59.715Z,74.33
2023-06-19T08:42:26.382Z,73.95
2023-06-19T08:44:52.856Z,74.24
2023-06-19T08:47:19.392Z,75.25
2023-06-19T08:49:46.007Z,75.59
2023-06-19T08:52:12.724Z,76.16
2023-06-19T08:54:45.273Z,76.96
2023-06-19T08:57:13.362Z,77.80
2023-06-19T08:59:40.249Z,77.59
2023-06-19T09:02:07.752Z,78.05
2023-06-19T09:04:34.993Z,77.09
2023-06-19T09:07:05.267Z,77.87
2023-06-19T09:09:33.949Z,76.44
2023-06-19T09:12:07.228Z,75.56
2023-06-19T09:14:37.466Z,75.09
2023-06-19T09:17:05.705Z,75.28
2023-06-19T09:19:32.826Z,75.83
2023-06-19T09:22:10.057Z,76.07
2023-06-19T09:24:38.933Z,76.33
2023-06-19T09:27:14.794Z,77.01
2023-06-19T09:29:42.756Z,77.53
2023-06-19T09:32:21.681Z,77.22
2023-06-19T09:34:50.479Z,76.84
2023-06-19T09:37:22.587Z,76.38
2023-06-19T09:39:54.029Z,75.82
2023-06-19T09:42:29.367Z,75.92
2023-06-19T09:45:01.023Z,75.54
2023-06-19T09:47:32.657Z,74.59
2023-06-19T09:49:59.971Z,75.06
2023-06-19T09:52:26.578Z,74.54
2023-06-19T09:54:54.758Z,74.14
2023-06-19T09:57:22.349Z,74.42
2023-06-19T09:59:53.807Z,74.60
2023-06-19T10:02:22.125Z,74.25
2023-06-19T10:04:54.150Z,74.45
2023-06-19T10:07:24.949Z,74.60
2023-06-19T10:10:05.220Z,74.21
2023-06-19T10:12:40.579Z,74.04
2023-06-19T10:15:21.226Z,74.13
2023-06-19T10:18:00.367Z,74.08
2023-06-19T10:20:34.997Z,74.09
2023-06-19T10:23:06.326Z,74.77
2023-06-19T10:25:35.422Z,74.98
2023-06-19T10:28:02.872Z,74.93
2023-06-19T10:30:31.023Z,74.79
2023-06-19T10:32:58.389Z,73.05
2023-06-19T10:35:25.567Z,73.18
2023-06-19T10:37:52.424Z,71.57
2023-06-19T10:40:19.253Z,71.70
2023-06-19T10:42:46.373Z,71.89
2023-06-19T10:45:17.001Z,72.23
2023-06-19T10:47:44.562Z,73.18
2023-06-19T10:50:15.721Z,72.70
2023-06-19T10:52:43.957Z,72.72
2023-06-19T10:55:11.498Z,72.49
2023-06-19T10:57:38.192Z,72.98
2023-06-19T11:00:14.538Z,73.22
2023-06-19T11:02:44.509Z,71.64
2023-06-19T11:05:12.849Z,72.07
2023-06-19T11:07:39.710Z,73.21
2023-06-19T11:10:07.090Z,73.72
2023-06-19T11:12:37.023Z,72.18
2023-06-19T11:15:06.446Z,72.59
2023-06-19T11:17:33.224Z,71.95
2023-06-19T11:20:00.401Z,71.09
2023-06-19T11:22:41.505Z,70.84
2023-06-19T11:25:10.602Z,71.41
2023-06-19T11:27:40.265Z,70.94
2023-06-19T11:30:08.434Z,70.12
2023-06-19T11:32:41.791Z,69.04
2023-06-19T11:35:12.177Z,70.86
2023-06-19T11:37:43.103Z,72.29
2023-06-19T11:40:22.556Z,70.04
2023-06-19T11:42:52.380Z,69.98
2023-06-19T11:45:19.358Z,68.61
2023-06-19T11:47:47.291Z,68.75
2023-06-19T11:50:16.369Z,69.38
2023-06-19T11:52:45.998Z,68.48
2023-06-19T11:55:12.600Z,69.17
2023-06-19T11:57:39.941Z,66.31
2023-06-19T12:00:16.399Z,66.15
2023-06-19T12:02:45.286Z,64.95
2023-06-19T12:05:12.195Z,65.75
2023-06-19T12:07:39.160Z,65.84
2023-06-19T12:10:10.976Z,64.54
2023-06-19T12:12:39.012Z,64.25
2023-06-19T12:15:06.423Z,65.15
2023-06-19T12:17:34.124Z,65.66
2023-06-19T12:20:01.517Z,66.38
2023-06-19T12:22:28.554Z,66.00
2023-06-19T12:24:55.151Z,66.50
2023-06-19T12:27:21.679Z,65.22
2023-06-19T12:29:48.173Z,65.43
2023-06-19T12:32:14.724Z,65.89
2023-06-19T12:34:41.490Z,65.65
2023-06-19T12:37:08.045Z,64.70
2023-06-19T12:39:35.603Z,63.38
2023-06-19T12:42:02.222Z,63.87
2023-06-19T12:44:28.713Z,63.42
2023-06-19T12:46:55.594Z,62.48
2023-06-19T12:49:22.144Z,62.67
2023-06-19T12:51:52.241Z,63.00
2023-06-19T12:54:19.235Z,62.08
2023-06-19T12:56:46.462Z,60.81
2023-06-19T12:59:12.943Z,61.15
2023-06-19T13:01:39.474Z,60.48
2023-06-19T13:04:06.162Z,60.55
2023-06-19T13:06:33.186Z,59.92
2023-06-19T13:08:59.708Z,60.12
2023-06-19T13:11:26.738Z,59.38
2023-06-19T13:13:53.214Z,59.25
2023-06-19T13:16:27.199Z,58.86
2023-06-19T13:18:57.017Z,58.72
2023-06-19T13:21:23.764Z,59.12
2023-06-19T13:23:50.696Z,58.73
2023-06-19T13:26:17.561Z,57.33
2023-06-19T13:28:44.133Z,57.86
2023-06-19T13:31:10.647Z,57.17
2023-06-19T13:33:37.181Z,56.88
2023-06-19T13:36:03.974Z,57.28
2023-06-19T13:38:30.501Z,55.60
2023-06-19T13:40:56.993Z,55.48
2023-06-19T13:43:24.398Z,55.64
2023-06-19T13:45:51.056Z,56.04
2023-06-19T13:48:18.532Z,56.01
2023-06-19T13:50:45.067Z,55.98
2023-06-19T13:53:11.577Z,55.36
2023-06-19T13:55:38.100Z,55.41
2023-06-19T13:58:04.616Z,55.91
2023-06-19T14:00:31.853Z,55.66
2023-06-19T14:02:58.462Z,54.57
2023-06-19T14:05:25.010Z,54.33
2023-06-19T14:07:53.087Z,55.91
2023-06-19T14:10:19.588Z,55.17
2023-06-19T14:12:46.072Z,55.21
2023-06-19T14:15:12.739Z,55.50
2023-06-19T14:17:39.471Z,54.87
2023-06-19T14:20:06.953Z,55.31
2023-06-19T14:22:33.459Z,54.63
2023-06-19T14:25:02.818Z,54.94
2023-06-19T14:27:29.797Z,55.32
2023-06-19T14:29:56.785Z,56.25
2023-06-19T14:32:27.159Z,57.39
2023-06-19T14:34:53.736Z,56.73
2023-06-19T14:37:20.544Z,55.93
2023-06-19T14:39:47.208Z,55.83
2023-06-19T14:42:13.778Z,56.92
2023-06-19T14:44:40.343Z,56.88
2023-06-19T14:47:07.835Z,55.50
2023-06-19T14:49:34.364Z,55.84
2023-06-19T14:52:01.190Z,54.81
2023-06-19T14:54:27.816Z,53.58
2023-06-19T14:56:54.622Z,54.85
2023-06-19T14:59:21.185Z,54.69
2023-06-19T15:01:47.775Z,54.04
2023-06-19T15:04:14.501Z,53.45
2023-06-19T15:06:41.188Z,53.70
2023-06-19T15:09:07.721Z,55.14
2023-06-19T15:11:34.550Z,54.46
2023-06-19T15:14:01.292Z,54.39
2023-06-19T15:16:27.841Z,53.01
2023-06-19T15:18:55.244Z,52.86
2023-06-19T15:21:22.040Z,53.13
2023-06-19T15:23:50.313Z,53.73
2023-06-19T15:26:16.880Z,54.19
2023-06-19T15:28:44.974Z,54.79
2023-06-19T15:31:11.510Z,54.76
2023-06-19T15:33:37.986Z,54.53
2023-06-19T15:36:04.627Z,53.92
2023-06-19T15:38:31.185Z,53.49
2023-06-19T15:40:57.848Z,54.65
2023-06-19T15:43:29.538Z,55.76
2023-06-19T15:45:57.207Z,54.93
2023-06-19T15:48:23.877Z,55.07
2023-06-19T15:50:50.475Z,55.11
2023-06-19T15:53:17.125Z,55.07
2023-06-19T15:55:43.848Z,54.93
2023-06-19T15:58:10.483Z,56.46
2023-06-19T16:00:37.083Z,56.00
2023-06-19T16:03:03.876Z,56.08
2023-06-19T16:05:30.583Z,55.70
2023-06-19T16:07:57.167Z,55.50
2023-06-19T16:10:24.179Z,55.20
2023-06-19T16:12:50.843Z,56.10
2023-06-19T16:15:18.587Z,55.87
2023-06-19T16:17:48.155Z,55.01
2023-06-19T16:20:14.746Z,55.44
2023-06-19T16:22:41.240Z,54.55
2023-06-19T16:25:10.138Z,54.23
2023-06-19T16:27:36.647Z,54.33
2023-06-19T16:30:04.085Z,54.70
2023-06-19T16:32:30.645Z,55.37
2023-06-19T16:34:57.201Z,55.25
2023-06-19T16:37:23.745Z,55.69
2023-06-19T16:39:50.258Z,55.67
2023-06-19T16:42:16.955Z,55.17
2023-06-19T16:44:43.612Z,56.04
2023-06-19T16:47:10.227Z,56.86
2023-06-19T16:49:36.835Z,56.85
2023-06-19T16:52:03.536Z,56.39
2023-06-19T16:54:30.021Z,56.21
2023-06-19T16:56:56.733Z,57.42
2023-06-19T16:59:23.324Z,57.40
2023-06-19T17:01:49.808Z,57.95
2023-06-19T17:04:16.348Z,57.96
2023-06-19T17:06:42.997Z,57.67
2023-06-19T17:09:10.225Z,57.23
2023-06-19T17:11:38.958Z,57.66
2023-06-19T17:14:07.254Z,57.96
2023-06-19T17:16:33.949Z,57.59
2023-06-19T17:19:00.563Z,57.45
2023-06-19T17:21:27.168Z,57.93
2023-06-19T17:23:55.381Z,57.33
2023-06-19T17:26:21.874Z,57.18
2023-06-19T17:28:48.457Z,57.05
2023-06-19T17:31:15.177Z,56.92
2023-06-19T17:33:42.149Z,56.75
2023-06-19T17:36:10.877Z,57.28
2023-06-19T17:38:37.656Z,57.15
2023-06-19T17:41:05.522Z,57.23
2023-06-19T17:43:32.216Z,57.38
2023-06-19T17:45:58.786Z,57.38
2023-06-19T17:48:25.255Z,57.68
2023-06-19T17:50:51.786Z,57.96
2023-06-19T17:53:18.275Z,57.83
2023-06-19T17:55:44.845Z,58.08
2023-06-19T17:58:11.430Z,59.29
2023-06-19T18:00:37.980Z,61.25
2023-06-19T18:03:05.455Z,62.71
2023-06-19T18:05:32.102Z,64.01
2023-06-19T18:07:58.605Z,64.90
2023-06-19T18:10:25.225Z,65.81
2023-06-19T18:12:51.954Z,65.98
2023-06-19T18:15:18.428Z,66.53
2023-06-19T18:17:45.167Z,67.49
2023-06-19T18:20:12.485Z,66.76
2023-06-19T18:22:39.647Z,67.32
2023-06-19T18:25:06.481Z,66.61
2023-06-19T18:27:33.522Z,67.42
2023-06-19T18:30:03.132Z,67.49
2023-06-19T18:32:30.957Z,67.85
2023-06-19T18:34:59.045Z,68.18
2023-06-19T18:37:26.063Z,68.54
2023-06-19T18:39:55.137Z,68.92
2023-06-19T18:42:21.932Z,69.14
2023-06-19T18:44:48.477Z,69.27
2023-06-19T18:47:14.989Z,69.43
2023-06-19T18:49:41.573Z,70.09
2023-06-19T18:52:08.216Z,70.60
2023-06-19T18:54:34.903Z,70.87
2023-06-19T18:57:01.458Z,70.64
2023-06-19T18:59:27.970Z,70.84
2023-06-19T19:01:54.569Z,70.82
2023-06-19T19:04:21.248Z,71.93
2023-06-19T19:06:47.743Z,71.86
2023-06-19T19:09:14.273Z,71.43
2023-06-19T19:11:40.790Z,72.53
2023-06-19T19:14:07.456Z,72.13
2023-06-19T19:16:34.024Z,72.02
2023-06-19T19:19:00.664Z,71.05
2023-06-19T19:21:27.225Z,71.19
2023-06-19T19:23:53.828Z,70.98
2023-06-19T19:26:20.429Z,70.92
2023-06-19T19:28:46.962Z,71.16
2023-06-19T19:31:13.472Z,71.03
2023-06-19T19:33:40.437Z,71.44
2023-06-19T19:36:07.964Z,71.37
2023-06-19T19:38:34.808Z,71.59
2023-06-19T19:41:01.785Z,71.44
2023-06-19T19:43:28.393Z,71.50
2023-06-19T19:45:55.066Z,71.04
2023-06-19T19:48:21.962Z,71.35
2023-06-19T19:50:48.567Z,71.54
2023-06-19T19:53:15.227Z,71.33
2023-06-19T19:55:41.888Z,71.29
2023-06-19T19:58:08.441Z,71.56
2023-06-19T20:00:34.898Z,71.33
2023-06-19T20:03:01.485Z,71.43
2023-06-19T20:05:28.095Z,72.04
2023-06-19T20:07:54.623Z,72.08
2023-06-19T20:10:21.223Z,72.48
2023-06-19T20:12:47.721Z,72.40
2023-06-19T20:15:14.530Z,72.23
2023-06-19T20:17:41.125Z,72.48
2023-06-19T20:20:08.573Z,73.31
2023-06-19T20:22:35.029Z,72.95
2023-06-19T20:25:01.796Z,72.85
2023-06-19T20:27:28.479Z,73.66
2023-06-19T20:29:55.068Z,73.23
2023-06-19T20:32:21.624Z,73.84
2023-06-19T20:34:48.182Z,74.36
2023-06-19T20:37:15.488Z,74.61
2023-06-19T20:39:42.474Z,74.46
2023-06-19T20:42:09.150Z,75.32
2023-06-19T20:44:37.514Z,75.11
2023-06-19T20:47:04.864Z,74.66
2023-06-19T20:49:31.358Z,73.99
2023-06-19T20:51:57.863Z,74.30
2023-06-19T20:54:24.497Z,75.02
2023-06-19T20:56:51.060Z,74.90
2023-06-19T20:59:17.511Z,75.48
2023-06-19T21:01:44.914Z,74.73
2023-06-19T21:04:11.533Z,75.37
2023-06-19T21:06:38.117Z,75.28
2023-06-19T21:09:05.461Z,76.22
2023-06-19T21:11:32.433Z,75.58
2023-06-19T21:13:59.052Z,76.00
2023-06-19T21:16:25.812Z,75.85
2023-06-19T21:18:52.421Z,77.19
2023-06-19T21:21:18.994Z,76.40
2023-06-19T21:23:45.554Z,77.30
2023-06-19T21:26:12.020Z,77.86
2023-06-19T21:28:38.538Z,77.18
2023-06-19T21:31:05.123Z,78.17
2023-06-19T21:33:33.309Z,76.96
2023-06-19T21:35:59.954Z,77.15
2023-06-19T21:38:28.732Z,76.30
2023-06-19T21:40:55.213Z,75.97
2023-06-19T21:43:21.784Z,76.73
2023-06-19T21:45:48.660Z,76.44
2023-06-19T21:48:15.349Z,75.92
2023-06-19T21:50:41.899Z,75.12
2023-06-19T21:53:08.488Z,75.08
2023-06-19T21:55:35.003Z,75.20
2023-06-19T21:58:01.679Z,76.05
2023-06-19T22:00:29.111Z,76.04
2023-06-19T22:02:58.230Z,75.57
2023-06-19T22:05:25.088Z,75.23
2023-06-19T22:07:51.743Z,75.69
2023-06-19T22:10:18.584Z,75.73
2023-06-19T22:12:45.699Z,74.71
2023-06-19T22:15:12.437Z,75.12
2023-06-19T22:17:38.984Z,75.85
2023-06-19T22:20:06.161Z,75.66
2023-06-19T22:22:32.727Z,76.30
2023-06-19T22:24:59.299Z,76.60
2023-06-19T22:27:25.808Z,76.54
2023-06-19T22:29:52.354Z,76.03
2023-06-19T22:32:20.004Z,76.50
2023-06-19T22:34:46.793Z,76.19
2023-06-19T22:37:13.378Z,76.13
2023-06-19T22:39:40.062Z,76.92
2023-06-19T22:42:06.996Z,76.28
2023-06-19T22:44:33.613Z,77.32
2023-06-19T22:47:00.080Z,77.04
2023-06-19T22:49:30.172Z,76.62
2023-06-19T22:51:58.084Z,76.93
2023-06-19T22:54:24.838Z,77.81
2023-06-19T22:56:51.454Z,78.34
2023-06-19T22:59:17.984Z,77.05
2023-06-19T23:01:44.463Z,77.76
2023-06-19T23:04:11.031Z,77.54
2023-06-19T23:06:43.685Z,78.14
2023-06-19T23:09:13.607Z,78.00
2023-06-19T23:11:40.315Z,78.21
2023-06-19T23:14:07.347Z,78.56
2023-06-19T23:16:33.890Z,78.59
2023-06-19T23:19:00.480Z,78.75
2023-06-19T23:21:31.118Z,78.05
2023-06-19T23:23:59.018Z,78.83
2023-06-19T23:26:25.742Z,78.94
2023-06-19T23:28:52.870Z,79.43
2023-06-19T23:31:22.238Z,78.79
2023-06-19T23:33:53.390Z,79.00
2023-06-19T23:36:19.971Z,79.25
2023-06-19T23:38:48.908Z,79.50
2023-06-19T23:41:15.539Z,79.09
2023-06-19T23:43:42.100Z,78.78
2023-06-19T23:46:09.088Z,78.81
2023-06-19T23:48:35.651Z,79.11
2023-06-19T23:51:02.269Z,78.51
2023-06-19T23:53:28.814Z,78.72
2023-06-19T23:55:55.388Z,78.16
2023-06-19T23:58:22.017Z,78.31
